HORACE LAKE: From 09/18/2018 15:00 to 11/17/2018 20:00

Date LAKE ELEVATION [FT] PRECIPITATION INCREMENT [IN] AIR TEMPERATURE [F] RELATIVE HUMIDITY [%] RELEASE [CFS]
11/17/2018 15:00 652.87 0.07 41.8 58.0 --
11/17/2018 14:00 652.88 0.08 40.4 69.0 --
11/17/2018 13:00 652.89 0.08 40.1 69.0 --
11/17/2018 12:00 652.90 0.00 40.1 68.0 --
11/17/2018 11:00 652.90 0.08 40.1 68.0 --
11/17/2018 10:00 652.90 0.01 39.9 67.0 --
11/17/2018 09:00 652.91 0.01 37.4 78.0 --
11/17/2018 08:00 652.93 0.00 35.9 84.0 --
11/17/2018 07:00 652.92 0.00 35.0 85.0 --
11/17/2018 06:00 652.93 0.00 35.7 80.0 --
11/17/2018 05:00 652.97 0.00 37.0 74.0 --
11/17/2018 04:00 652.96 0.01 36.5 75.0 --
11/17/2018 03:00 652.96 0.00 35.5 78.0 --
11/17/2018 02:00 652.97 0.00 34.7 82.0 --
11/17/2018 01:00 652.97 0.00 34.7 82.0 --
11/17/2018 00:00 652.97 0.00 33.3 88.0 --
11/16/2018 23:00 652.99 0.00 31.0 92.0 --
11/16/2018 22:00 653.00 0.00 29.9 95.0 --
11/16/2018 21:00 653.00 0.00 28.2 100.0 --
11/16/2018 20:00 653.00 0.00 28.2 100.0 --
11/16/2018 19:00 653.01 0.00 31.2 89.0 --
11/16/2018 18:00 653.03 0.00 32.9 78.0 --
11/16/2018 17:00 653.04 0.00 34.1 80.0 --
11/16/2018 16:00 653.04 0.00 31.8 88.0 --
11/16/2018 15:00 653.04 0.00 31.8 88.0 --
11/16/2018 14:00 653.06 0.00 30.4 98.0 --
11/16/2018 13:00 653.07 0.00 28.3 100.0 --
11/16/2018 12:00 653.08 0.00 26.8 100.0 --
11/16/2018 11:00 653.09 0.00 26.6 100.0 --
11/16/2018 10:00 653.10 0.00 25.7 100.0 --
11/16/2018 09:00 653.10 0.00 25.8 100.0 --
11/16/2018 08:00 653.10 0.00 25.8 100.0 --
11/16/2018 07:00 653.12 0.00 26.8 100.0 --
11/16/2018 06:00 653.13 0.00 25.0 100.0 --
11/16/2018 05:00 653.13 0.00 25.0 100.0 --
11/16/2018 04:00 653.15 0.00 25.3 100.0 --
11/16/2018 03:00 653.17 0.00 23.2 100.0 --
11/16/2018 02:00 653.17 0.00 22.5 99.0 --
11/16/2018 01:00 653.17 0.00 22.2 97.0 --
11/16/2018 00:00 653.17 0.00 22.2 97.0 --
11/15/2018 23:00 653.18 0.00 22.4 91.0 --
11/15/2018 22:00 653.20 0.00 26.2 44.0 --
11/15/2018 21:00 653.22 0.00 26.0 42.0 --
11/15/2018 20:00 653.23 0.00 25.7 37.0 --
11/15/2018 19:00 653.23 0.00 25.7 37.0 --
11/15/2018 18:00 653.24 0.00 26.0 38.0 --
11/15/2018 17:00 653.27 0.00 26.9 37.0 --
11/15/2018 16:00 653.29 0.00 26.6 32.0 --
11/15/2018 15:00 653.30 0.00 26.4 37.0 --
11/15/2018 14:00 653.33 0.00 24.6 41.0 --
11/15/2018 13:00 653.34 0.00 23.2 46.0 --
11/15/2018 12:00 653.36 0.00 21.2 49.0 --
11/15/2018 11:00 653.38 0.00 19.7 57.0 --
11/15/2018 10:00 653.40 0.00 18.0 62.0 --
11/15/2018 09:00 653.40 0.00 18.0 62.0 --
11/15/2018 08:00 653.43 0.00 17.4 64.0 --
11/15/2018 07:00 653.47 0.00 16.6 62.0 --
11/15/2018 06:00 653.48 0.00 17.3 65.0 --
11/15/2018 05:00 653.50 0.00 17.1 63.0 --
11/15/2018 04:00 653.51 0.00 17.3 62.0 --
11/15/2018 03:00 653.52 0.00 17.7 63.0 --
11/15/2018 02:00 653.54 0.00 17.8 63.0 --
11/15/2018 01:00 653.55 0.00 18.2 63.0 --
11/15/2018 00:00 653.56 0.00 17.9 58.0 --
11/14/2018 23:00 653.56 0.00 17.9 58.0 --
11/14/2018 22:00 653.57 0.00 18.8 58.0 --
11/14/2018 21:00 653.61 0.00 21.2 54.0 --
11/14/2018 20:00 653.62 0.00 23.5 43.0 --
11/14/2018 19:00 653.59 0.00 25.3 36.0 --
11/14/2018 18:00 653.61 0.00 26.4 30.0 --
11/14/2018 17:00 653.62 0.00 27.5 29.0 --
11/14/2018 16:00 653.68 0.01 27.7 30.0 --
11/14/2018 15:00 653.70 0.00 27.6 34.0 --
11/14/2018 14:00 653.64 0.00 27.4 31.0 --
11/14/2018 13:00 653.64 0.04 27.4 31.0 --
11/14/2018 12:00 653.71 0.00 27.1 36.0 --
11/14/2018 11:00 653.66 0.00 26.9 48.0 --
11/14/2018 10:00 653.63 0.00 26.3 62.0 --
11/14/2018 09:00 653.61 0.00 27.5 57.0 --
11/14/2018 08:00 653.59 0.00 27.4 59.0 --
11/14/2018 07:00 653.59 0.00 27.1 57.0 --
11/14/2018 06:00 653.57 0.00 27.6 60.0 --
11/14/2018 05:00 653.55 0.00 28.1 56.0 --
11/14/2018 04:00 653.54 0.00 29.4 54.0 --
11/14/2018 03:00 653.52 0.00 30.7 59.0 --
11/14/2018 02:00 653.48 0.00 32.8 57.0 --
11/14/2018 01:00 653.47 0.00 35.1 57.0 --
11/14/2018 00:00 653.47 0.00 35.1 57.0 --
11/13/2018 23:00 653.43 0.01 38.1 66.0 --
11/13/2018 22:00 653.35 0.00 38.5 76.0 --
11/13/2018 21:00 653.32 0.00 38.6 79.0 --
11/13/2018 20:00 653.27 0.00 38.5 83.0 --
11/13/2018 19:00 653.27 0.00 38.5 83.0 --
11/13/2018 18:00 653.24 0.00 39.4 93.0 --
11/13/2018 17:00 653.17 0.00 38.8 100.0 --
11/13/2018 16:00 653.13 0.01 38.8 100.0 --
11/13/2018 15:00 653.09 0.03 37.8 100.0 --
11/13/2018 14:00 653.06 0.11 37.0 100.0 --
11/13/2018 13:00 653.01 0.10 37.0 100.0 --
11/13/2018 12:00 652.99 0.12 36.0 100.0 --
11/13/2018 11:00 652.98 0.13 34.5 100.0 --
11/13/2018 10:00 652.96 0.00 33.7 100.0 --
11/13/2018 09:00 652.96 0.13 33.7 100.0 --
11/13/2018 08:00 652.95 0.23 32.9 100.0 --
11/13/2018 07:00 652.95 0.13 32.5 100.0 --
11/13/2018 06:00 652.94 0.11 32.8 100.0 --
11/13/2018 05:00 652.94 0.00 32.6 100.0 --
11/13/2018 04:00 652.94 0.04 32.6 100.0 --
11/13/2018 03:00 652.95 0.00 34.0 88.0 --
11/13/2018 02:00 652.98 0.00 33.6 86.0 --
11/13/2018 01:00 652.97 0.00 33.6 81.0 --
11/13/2018 00:00 652.99 0.00 33.2 79.0 --
11/12/2018 23:00 653.00 0.00 32.6 79.0 --
11/12/2018 22:00 653.01 0.00 32.6 78.0 --
11/12/2018 21:00 653.01 0.00 32.6 78.0 --
11/12/2018 20:00 653.03 0.00 33.4 76.0 --
11/12/2018 19:00 653.05 0.00 34.5 70.0 --
11/12/2018 18:00 653.06 0.00 40.6 58.0 --
11/12/2018 17:00 653.08 0.00 43.4 41.0 --
11/12/2018 16:00 653.10 0.00 43.5 42.0 --
11/12/2018 15:00 653.11 0.00 42.9 44.0 --
11/12/2018 14:00 653.13 0.00 41.4 47.0 --
11/12/2018 13:00 653.14 0.00 39.5 51.0 --
11/12/2018 12:00 653.15 0.00 36.7 58.0 --
11/12/2018 11:00 653.15 0.00 36.7 58.0 --
11/12/2018 10:00 653.17 0.00 29.6 75.0 --
11/12/2018 09:00 653.19 0.00 24.1 91.0 --
11/12/2018 08:00 653.19 0.00 24.1 91.0 --
11/12/2018 07:00 653.20 0.00 24.2 90.0 --
11/12/2018 06:00 653.21 0.00 24.3 91.0 --
11/12/2018 05:00 653.24 0.00 24.1 89.0 --
11/12/2018 04:00 653.26 0.00 25.1 83.0 --
11/12/2018 03:00 653.28 0.00 25.6 80.0 --
11/12/2018 02:00 653.29 0.00 25.6 80.0 --
11/12/2018 01:00 653.31 0.00 26.3 79.0 --
11/12/2018 00:00 653.32 0.00 27.2 76.0 --
11/11/2018 23:00 653.33 0.00 27.0 74.0 --
11/11/2018 22:00 653.33 0.00 27.0 74.0 --
11/11/2018 21:00 653.35 0.00 27.3 64.0 --
11/11/2018 20:00 653.35 0.00 28.2 56.0 --
11/11/2018 19:00 653.37 0.00 29.1 60.0 --
11/11/2018 18:00 653.40 0.00 37.5 26.0 --
11/11/2018 17:00 653.41 0.00 37.7 27.0 --
11/11/2018 16:00 653.43 0.00 37.2 24.0 --
11/11/2018 15:00 653.44 0.00 36.8 31.0 --
11/11/2018 14:00 653.45 0.00 36.0 36.0 --
11/11/2018 13:00 653.47 0.00 34.6 38.0 --
11/11/2018 12:00 653.52 0.00 33.4 43.0 --
11/11/2018 11:00 653.48 0.00 31.8 45.0 --
11/11/2018 10:00 653.48 0.00 31.8 45.0 --
11/11/2018 09:00 653.48 0.00 30.5 50.0 --
11/11/2018 08:00 653.52 0.00 29.8 55.0 --
11/11/2018 07:00 653.51 0.00 30.1 54.0 --
11/11/2018 06:00 653.53 0.00 31.1 54.0 --
11/11/2018 05:00 653.53 0.00 31.1 54.0 --
11/11/2018 04:00 653.49 0.00 31.2 57.0 --
11/11/2018 03:00 653.52 0.00 33.4 55.0 --
11/11/2018 02:00 653.52 0.00 34.0 58.0 --
11/11/2018 01:00 653.51 0.00 34.5 57.0 --
11/11/2018 00:00 653.53 0.00 33.9 60.0 --
11/10/2018 23:00 653.50 0.00 34.0 55.0 --
11/10/2018 22:00 653.49 0.00 33.5 53.0 --
11/10/2018 21:00 653.48 0.00 33.5 48.0 --
11/10/2018 20:00 653.44 0.00 34.1 45.0 --
11/10/2018 19:00 653.44 0.01 35.0 39.0 --
11/10/2018 18:00 653.40 0.06 37.2 35.0 --
11/10/2018 17:00 653.38 0.00 38.5 38.0 --
11/10/2018 16:00 653.38 0.03 38.5 38.0 --
11/10/2018 15:00 653.39 0.00 39.7 44.0 --
11/10/2018 14:00 653.39 0.00 40.8 52.0 --
11/10/2018 13:00 653.35 0.01 40.4 69.0 --
11/10/2018 12:00 653.30 0.00 41.5 97.0 --
11/10/2018 11:00 653.30 0.00 41.5 97.0 --
11/10/2018 10:00 653.28 0.00 39.3 100.0 --
11/10/2018 09:00 653.26 0.02 37.9 100.0 --
11/10/2018 08:00 653.24 0.02 36.9 100.0 --
11/10/2018 07:00 653.19 0.00 36.9 100.0 --
11/10/2018 06:00 653.19 0.02 36.9 100.0 --
11/10/2018 05:00 653.16 0.06 38.6 100.0 --
11/10/2018 04:00 653.13 0.06 40.3 100.0 --
11/10/2018 03:00 653.11 0.06 40.1 100.0 --
11/10/2018 02:00 653.11 0.15 40.0 100.0 --
11/10/2018 01:00 653.09 0.10 39.5 100.0 --
11/10/2018 00:00 653.10 0.15 39.1 100.0 --
11/09/2018 23:00 653.09 0.12 38.8 100.0 --
11/09/2018 22:00 653.08 0.12 38.6 100.0 --
11/09/2018 21:00 653.08 0.05 38.6 100.0 --
11/09/2018 20:00 653.08 0.00 39.4 91.0 --
11/09/2018 19:00 653.10 0.00 40.3 83.0 --
11/09/2018 18:00 653.12 0.00 40.8 79.0 --
11/09/2018 17:00 653.14 0.00 41.3 76.0 --
11/09/2018 16:00 653.15 0.00 41.9 75.0 --
11/09/2018 15:00 653.16 0.00 40.9 78.0 --
11/09/2018 14:00 653.18 0.00 41.1 74.0 --
11/09/2018 13:00 653.20 0.00 40.2 73.0 --
11/09/2018 12:00 653.21 0.00 39.8 76.0 --
11/09/2018 11:00 653.23 0.00 34.2 97.0 --
11/09/2018 10:00 653.24 0.00 31.3 100.0 --
11/09/2018 09:00 653.27 0.00 29.5 100.0 --
11/09/2018 08:00 653.29 0.00 29.5 100.0 --
11/09/2018 07:00 653.30 0.00 30.1 100.0 --
11/09/2018 06:00 653.31 0.00 29.2 100.0 --
11/09/2018 05:00 653.33 0.00 30.7 100.0 --
11/09/2018 04:00 653.35 0.00 31.2 100.0 --
11/09/2018 03:00 653.37 0.00 31.4 99.0 --
11/09/2018 02:00 653.37 0.00 31.4 99.0 --
11/09/2018 01:00 653.38 0.00 32.3 99.0 --
11/09/2018 00:00 653.42 0.00 33.2 97.0 --
11/08/2018 23:00 653.44 0.00 34.6 90.0 --
11/08/2018 22:00 653.46 0.00 36.7 85.0 --
11/08/2018 21:00 653.46 0.00 36.7 85.0 --
11/08/2018 20:00 653.49 0.00 40.6 72.0 --
11/08/2018 19:00 653.52 0.00 44.2 59.0 --
11/08/2018 18:00 653.54 0.00 45.7 51.0 --
11/08/2018 17:00 653.54 0.00 45.9 49.0 --
11/08/2018 16:00 653.57 0.00 45.6 51.0 --
11/08/2018 15:00 653.58 0.00 45.8 49.0 --
11/08/2018 14:00 653.60 0.00 45.0 52.0 --
11/08/2018 13:00 653.63 0.00 45.8 52.0 --
11/08/2018 12:00 653.66 0.00 45.0 54.0 --
11/08/2018 11:00 653.66 0.00 45.0 54.0 --
11/08/2018 10:00 653.68 0.00 43.2 59.0 --
11/08/2018 09:00 653.71 0.00 36.3 77.0 --
11/08/2018 08:00 653.73 0.00 40.0 67.0 --
11/08/2018 07:00 653.76 0.00 41.3 61.0 --
11/08/2018 06:00 653.76 0.00 41.3 61.0 --
11/08/2018 05:00 653.77 0.00 39.0 69.0 --
11/08/2018 04:00 653.78 0.00 41.1 62.0 --
11/08/2018 03:00 653.79 0.00 41.9 63.0 --
11/08/2018 02:00 653.84 0.00 44.2 64.0 --
11/08/2018 01:00 653.84 0.00 44.2 64.0 --
11/08/2018 00:00 653.85 0.00 45.7 65.0 --
11/07/2018 23:00 653.86 0.00 38.0 97.0 --
11/07/2018 22:00 653.89 0.00 39.6 92.0 --
11/07/2018 21:00 653.88 0.00 41.0 87.0 --
11/07/2018 20:00 653.89 0.00 43.0 84.0 --
11/07/2018 19:00 653.90 0.00 51.1 51.0 --
11/07/2018 18:00 653.92 0.00 54.3 41.0 --
11/07/2018 17:00 653.92 0.00 55.3 42.0 --
11/07/2018 16:00 653.95 0.00 55.9 42.0 --
11/07/2018 15:00 653.95 0.00 55.9 42.0 --
11/07/2018 14:00 653.92 0.00 55.6 46.0 --
11/07/2018 13:00 653.93 0.00 54.2 51.0 --
11/07/2018 12:00 653.90 0.00 52.9 53.0 --
11/07/2018 11:00 653.89 0.00 52.1 54.0 --
11/07/2018 10:00 653.89 0.00 52.1 54.0 --
11/07/2018 09:00 653.91 0.00 50.6 59.0 --
11/07/2018 08:00 653.90 0.00 49.8 66.0 --
11/07/2018 07:00 653.88 0.00 48.9 75.0 --
11/07/2018 06:00 653.85 0.00 50.8 76.0 --
11/07/2018 05:00 653.85 0.01 50.8 76.0 --
11/07/2018 04:00 653.84 0.00 48.5 100.0 --
11/07/2018 03:00 653.81 0.00 43.5 100.0 --
11/07/2018 02:00 653.79 0.00 42.8 100.0 --
11/07/2018 01:00 653.78 0.00 43.2 100.0 --
11/07/2018 00:00 653.77 0.00 44.2 100.0 --
11/06/2018 23:00 653.76 0.00 45.4 100.0 --
11/06/2018 22:00 653.71 0.00 45.5 100.0 --
11/06/2018 21:00 653.71 0.01 45.5 100.0 --
11/06/2018 20:00 653.71 0.04 46.0 100.0 --
11/06/2018 19:00 653.68 0.07 45.9 100.0 --
11/06/2018 18:00 653.66 0.05 46.0 100.0 --
11/06/2018 17:00 653.67 0.16 46.2 100.0 --
11/06/2018 16:00 653.65 0.19 45.7 100.0 --
11/06/2018 15:00 653.64 0.00 45.7 100.0 --
11/06/2018 14:00 653.64 0.10 45.7 100.0 --
11/06/2018 13:00 653.64 0.00 45.1 100.0 --
11/06/2018 12:00 653.66 0.00 44.3 100.0 --
11/06/2018 11:00 653.67 0.00 43.4 100.0 --
11/06/2018 10:00 653.70 0.00 42.1 100.0 --
11/06/2018 09:00 653.71 0.00 41.0 100.0 --
11/06/2018 08:00 653.72 0.00 40.6 100.0 --
11/06/2018 07:00 653.73 0.00 40.3 100.0 --
11/06/2018 06:00 653.75 0.01 40.1 100.0 --
11/06/2018 05:00 653.77 0.01 39.6 100.0 --
11/06/2018 04:00 653.79 0.01 39.1 100.0 --
11/06/2018 03:00 653.80 0.02 39.2 100.0 --
11/06/2018 02:00 653.82 0.00 39.2 100.0 --
11/06/2018 01:00 653.82 0.01 39.2 100.0 --
11/06/2018 00:00 653.84 0.11 39.2 100.0 --
11/05/2018 23:00 653.88 0.08 38.6 100.0 --
11/05/2018 22:00 653.90 0.01 38.4 100.0 --
11/05/2018 21:00 653.93 0.00 38.7 100.0 --
11/05/2018 20:00 653.95 0.01 38.5 100.0 --
11/05/2018 19:00 653.98 0.00 38.6 100.0 --
11/05/2018 18:00 654.02 0.00 38.8 100.0 --
11/05/2018 17:00 654.03 0.00 38.3 99.0 --
11/05/2018 16:00 654.08 0.00 38.4 88.0 --
11/05/2018 15:00 654.08 0.00 38.4 88.0 --
11/05/2018 14:00 654.10 0.00 38.4 89.0 --
11/05/2018 13:00 654.16 0.00 36.3 87.0 --
11/05/2018 12:00 654.20 0.00 35.5 88.0 --
11/05/2018 11:00 654.24 0.00 34.3 86.0 --
11/05/2018 10:00 654.26 0.00 33.9 90.0 --
11/05/2018 09:00 654.30 0.00 33.0 92.0 --
11/05/2018 08:00 654.34 0.00 32.8 98.0 --
11/05/2018 07:00 654.37 0.00 32.0 100.0 --
11/05/2018 06:00 654.41 0.00 30.5 100.0 --
11/05/2018 05:00 654.47 0.00 29.2 100.0 --
11/05/2018 04:00 654.49 0.00 29.8 100.0 --
11/05/2018 03:00 654.54 0.00 30.8 100.0 --
11/05/2018 02:00 654.57 0.00 30.4 100.0 --
11/05/2018 01:00 654.61 0.00 30.7 100.0 --
11/05/2018 00:00 654.61 0.00 30.7 100.0 --
11/04/2018 23:00 654.64 0.00 31.8 98.0 --
11/04/2018 22:00 654.73 0.00 34.7 90.0 --
11/04/2018 21:00 654.77 0.00 36.2 86.0 --
11/04/2018 20:00 654.81 0.00 37.4 83.0 --
11/04/2018 19:00 654.84 0.00 40.7 74.0 --
11/04/2018 18:00 654.88 0.00 45.6 50.0 --
11/04/2018 17:00 654.92 0.00 46.6 45.0 --
11/04/2018 16:00 654.96 0.00 46.0 48.0 --
11/04/2018 15:00 655.00 0.00 45.3 48.0 --
11/04/2018 14:00 655.00 0.00 45.3 48.0 --
11/04/2018 13:00 655.03 0.00 44.1 51.0 --
11/04/2018 12:00 655.10 0.00 41.5 55.0 --
11/04/2018 11:00 655.11 0.00 39.8 59.0 --
11/04/2018 10:00 655.16 0.00 38.1 64.0 --
11/04/2018 09:00 655.16 0.00 38.1 64.0 --
11/04/2018 08:00 655.18 0.00 35.1 79.0 --
11/04/2018 07:00 655.23 0.00 35.3 81.0 --
11/04/2018 06:00 655.23 0.00 33.1 89.0 --
11/04/2018 05:00 655.24 0.00 36.3 74.0 --
11/04/2018 04:00 655.25 0.00 39.8 65.0 --
11/04/2018 03:00 655.26 0.00 40.8 62.0 --
11/04/2018 02:00 655.25 0.00 41.7 63.0 --
11/04/2018 01:00 655.25 0.00 42.3 61.0 --
11/04/2018 00:00 655.22 0.00 43.2 61.0 --
11/03/2018 23:00 655.19 0.00 43.2 61.0 --
11/03/2018 22:00 655.14 0.00 43.7 62.0 --
11/03/2018 21:00 655.14 0.01 43.7 62.0 --
11/03/2018 20:00 655.14 0.01 44.5 65.0 --
11/03/2018 19:00 655.10 0.00 45.4 66.0 --
11/03/2018 18:00 655.05 0.00 44.8 78.0 --
11/03/2018 17:00 655.01 0.00 48.3 79.0 --
11/03/2018 16:00 655.01 0.03 48.3 79.0 --
11/03/2018 15:00 654.86 0.10 51.3 96.0 --
11/03/2018 14:00 654.72 0.01 51.8 100.0 --
11/03/2018 13:00 654.65 0.00 51.2 100.0 --
11/03/2018 12:00 654.59 0.01 51.6 100.0 --
11/03/2018 11:00 654.52 0.05 50.2 100.0 --
11/03/2018 10:00 654.44 0.15 49.8 100.0 --
11/03/2018 09:00 654.36 0.05 49.7 100.0 --
11/03/2018 08:00 654.29 0.14 50.2 100.0 --
11/03/2018 07:00 654.21 0.00 49.7 100.0 --
11/03/2018 06:00 654.21 0.04 49.7 100.0 --
11/03/2018 05:00 654.14 0.29 50.5 100.0 --
11/03/2018 04:00 654.07 0.16 49.8 100.0 --
11/03/2018 03:00 654.06 0.13 50.0 100.0 --
11/03/2018 02:00 654.04 0.00 50.2 100.0 --
11/03/2018 01:00 654.04 0.36 50.2 100.0 --
11/03/2018 00:00 654.01 0.11 49.2 100.0 --
11/02/2018 23:00 654.02 0.00 50.0 100.0 --
11/02/2018 22:00 654.02 0.03 50.1 100.0 --
11/02/2018 21:00 654.04 0.00 50.4 100.0 --
11/02/2018 20:00 654.04 0.02 50.4 100.0 --
11/02/2018 19:00 654.06 0.00 50.1 100.0 --
11/02/2018 18:00 654.10 0.00 51.3 100.0 --
11/02/2018 17:00 654.11 0.13 50.7 100.0 --
11/02/2018 16:00 654.12 0.00 50.6 100.0 --
11/02/2018 15:00 654.15 0.00 50.0 100.0 --
11/02/2018 14:00 654.16 0.02 48.3 100.0 --
11/02/2018 13:00 654.19 0.07 47.7 100.0 --
11/02/2018 12:00 654.19 0.01 46.6 100.0 --
11/02/2018 11:00 654.17 0.04 46.3 100.0 --
11/02/2018 10:00 654.15 0.15 45.6 100.0 --
11/02/2018 09:00 654.11 0.07 45.3 100.0 --
11/02/2018 08:00 654.10 0.03 45.4 100.0 --
11/02/2018 07:00 654.08 0.02 45.5 100.0 --
11/02/2018 06:00 654.06 0.32 45.7 100.0 --
11/02/2018 05:00 654.02 0.12 46.0 100.0 --
11/02/2018 04:00 654.02 0.02 46.3 100.0 --
11/02/2018 03:00 654.03 0.01 46.6 100.0 --
11/02/2018 02:00 654.03 0.00 47.1 100.0 --
11/02/2018 01:00 654.03 0.00 47.1 100.0 --
11/02/2018 00:00 654.03 0.00 46.7 100.0 --
11/01/2018 23:00 654.02 0.00 46.6 100.0 --
11/01/2018 22:00 654.02 0.00 46.6 100.0 --
11/01/2018 21:00 654.02 0.00 47.4 100.0 --
11/01/2018 20:00 654.02 0.00 47.4 100.0 --
11/01/2018 19:00 654.03 0.00 47.7 100.0 --
11/01/2018 18:00 654.04 0.00 48.5 100.0 --
11/01/2018 17:00 654.03 0.00 48.4 100.0 --
11/01/2018 16:00 654.03 0.01 48.5 100.0 --
11/01/2018 15:00 654.03 0.02 47.1 100.0 --
11/01/2018 14:00 654.03 0.00 45.6 100.0 --
11/01/2018 13:00 654.03 0.04 45.6 100.0 --
11/01/2018 12:00 654.02 0.02 43.9 100.0 --
11/01/2018 11:00 654.01 0.00 44.5 100.0 --
11/01/2018 10:00 654.02 0.00 43.7 100.0 --
11/01/2018 09:00 654.02 0.00 43.1 100.0 --
11/01/2018 08:00 654.02 0.00 43.1 100.0 --
11/01/2018 07:00 654.02 0.00 42.8 100.0 --
11/01/2018 06:00 654.01 0.00 42.5 100.0 --
11/01/2018 05:00 654.01 0.00 42.5 100.0 --
11/01/2018 04:00 654.02 0.00 42.1 94.0 --
11/01/2018 03:00 654.01 0.00 40.9 95.0 --
11/01/2018 02:00 654.00 0.00 41.4 95.0 --
11/01/2018 01:00 654.01 0.00 41.8 99.0 --
11/01/2018 00:00 654.00 0.00 41.3 97.0 --
10/31/2018 23:00 654.00 0.00 42.4 94.0 --
10/31/2018 22:00 654.00 0.00 42.4 94.0 --
10/31/2018 21:00 654.00 0.00 43.0 97.0 --
10/31/2018 20:00 654.00 0.00 43.1 90.0 --
10/31/2018 19:00 653.98 0.00 43.6 88.0 --
10/31/2018 18:00 653.98 0.00 48.0 63.0 --
10/31/2018 17:00 653.98 0.00 48.0 63.0 --
10/31/2018 16:00 653.99 0.00 47.5 58.0 --
10/31/2018 15:00 653.99 0.00 45.7 59.0 --
10/31/2018 14:00 653.97 0.00 43.1 60.0 --
10/31/2018 13:00 653.98 0.00 37.6 81.0 --
10/31/2018 12:00 653.99 0.00 34.4 92.0 --
10/31/2018 11:00 654.00 0.00 31.2 100.0 --
10/31/2018 10:00 654.01 0.00 28.8 100.0 --
10/31/2018 09:00 654.00 0.00 28.4 100.0 --
10/31/2018 08:00 654.01 0.00 28.6 100.0 --
10/31/2018 07:00 654.02 0.00 28.7 100.0 --
10/31/2018 06:00 654.02 0.00 29.1 100.0 --
10/31/2018 05:00 654.02 0.00 29.1 100.0 --
10/31/2018 04:00 654.03 0.00 29.1 100.0 --
10/31/2018 03:00 654.04 0.00 30.6 100.0 --
10/31/2018 02:00 654.05 0.00 29.9 100.0 --
10/31/2018 01:00 654.05 0.00 30.8 100.0 --
10/31/2018 00:00 654.05 0.00 31.1 100.0 --
10/30/2018 23:00 654.06 0.00 32.4 100.0 --
10/30/2018 22:00 654.07 0.00 33.6 93.0 --
10/30/2018 21:00 654.07 0.00 34.4 88.0 --
10/30/2018 20:00 654.07 0.00 39.4 68.0 --
10/30/2018 19:00 654.08 0.00 41.1 64.0 --
10/30/2018 18:00 654.08 0.00 41.1 62.0 --
10/30/2018 17:00 654.08 0.00 40.7 63.0 --
10/30/2018 16:00 654.08 0.00 40.7 63.0 --
10/30/2018 15:00 654.10 0.00 40.6 61.0 --
10/30/2018 14:00 654.09 0.00 39.6 65.0 --
10/30/2018 13:00 654.09 0.00 39.3 70.0 --
10/30/2018 12:00 654.09 0.00 39.0 71.0 --
10/30/2018 11:00 654.08 0.00 38.4 75.0 --
10/30/2018 10:00 654.08 0.00 37.9 82.0 --
10/30/2018 09:00 654.08 0.00 36.3 87.0 --
10/30/2018 08:00 654.07 0.00 38.6 77.0 --
10/30/2018 07:00 654.08 0.00 39.1 78.0 --
10/30/2018 06:00 654.08 0.00 39.1 78.0 --
10/30/2018 05:00 654.08 0.00 39.1 81.0 --
10/30/2018 04:00 654.09 0.00 39.3 96.0 --
10/30/2018 03:00 654.07 0.00 38.1 100.0 --
10/30/2018 02:00 654.06 0.00 35.9 100.0 --
10/30/2018 01:00 654.06 0.00 35.9 100.0 --
10/30/2018 00:00 654.06 0.00 37.0 100.0 --
10/29/2018 23:00 654.04 0.00 43.8 81.0 --
10/29/2018 22:00 654.05 0.00 44.9 86.0 --
10/29/2018 21:00 654.05 0.00 44.1 97.0 --
10/29/2018 20:00 654.05 0.00 44.1 97.0 --
10/29/2018 19:00 654.04 0.00 45.9 94.0 --
10/29/2018 18:00 654.03 0.00 46.6 90.0 --
10/29/2018 17:00 654.02 0.02 45.1 96.0 --
10/29/2018 16:00 654.02 0.00 43.9 100.0 --
10/29/2018 15:00 654.02 0.07 43.9 100.0 --
10/29/2018 14:00 654.01 0.03 43.5 100.0 --
10/29/2018 13:00 654.00 0.15 43.0 100.0 --
10/29/2018 12:00 654.00 0.13 42.3 100.0 --
10/29/2018 11:00 653.99 0.00 41.8 100.0 --
10/29/2018 10:00 653.99 0.01 41.8 100.0 --
10/29/2018 09:00 653.98 0.00 41.3 100.0 --
10/29/2018 08:00 653.99 0.01 41.7 100.0 --
10/29/2018 07:00 654.00 0.05 41.9 100.0 --
10/29/2018 06:00 654.00 0.00 40.8 100.0 --
10/29/2018 05:00 654.00 0.00 40.8 100.0 --
10/29/2018 04:00 654.00 0.00 39.8 100.0 --
10/29/2018 03:00 653.99 0.00 39.6 100.0 --
10/29/2018 02:00 654.00 0.00 40.4 100.0 --
10/29/2018 01:00 654.00 0.00 40.4 100.0 --
10/29/2018 00:00 654.00 0.00 39.7 100.0 --
10/28/2018 23:00 654.00 0.00 40.9 100.0 --
10/28/2018 22:00 654.00 0.00 40.9 100.0 --
10/28/2018 21:00 654.01 0.00 40.9 100.0 --
10/28/2018 20:00 654.00 0.00 41.2 100.0 --
10/28/2018 19:00 654.01 0.00 44.6 100.0 --
10/28/2018 18:00 654.01 0.00 46.4 81.0 --
10/28/2018 17:00 654.01 0.00 46.3 83.0 --
10/28/2018 16:00 654.00 0.00 44.8 93.0 --
10/28/2018 15:00 654.00 0.00 42.7 98.0 --
10/28/2018 14:00 654.01 0.00 40.8 100.0 --
10/28/2018 13:00 654.00 0.00 39.2 100.0 --
10/28/2018 12:00 654.00 0.00 39.2 100.0 --
10/28/2018 11:00 653.99 0.00 37.9 100.0 --
10/28/2018 10:00 654.00 0.00 36.9 100.0 --
10/28/2018 09:00 653.99 0.00 36.3 100.0 --
10/28/2018 08:00 653.99 0.00 36.4 100.0 --
10/28/2018 07:00 653.99 0.00 36.4 100.0 --
10/28/2018 06:00 653.99 0.00 35.9 100.0 --
10/28/2018 05:00 653.99 0.00 35.8 100.0 --
10/28/2018 04:00 653.98 0.00 36.0 100.0 --
10/28/2018 03:00 653.99 0.02 36.2 100.0 --
10/28/2018 02:00 653.96 0.02 36.3 100.0 --
10/28/2018 01:00 653.99 0.00 36.6 100.0 --
10/28/2018 00:00 653.99 0.00 36.6 100.0 --
10/27/2018 23:00 654.02 0.02 36.4 100.0 --
10/27/2018 22:00 654.01 0.05 36.9 100.0 --
10/27/2018 21:00 654.02 0.02 37.2 100.0 --
10/27/2018 20:00 654.00 0.00 37.2 100.0 --
10/27/2018 19:00 654.00 0.05 37.2 100.0 --
10/27/2018 18:00 654.01 0.06 37.5 100.0 --
10/27/2018 17:00 654.03 0.00 37.7 100.0 --
10/27/2018 16:00 654.07 0.10 37.1 100.0 --
10/27/2018 15:00 654.07 0.09 35.0 100.0 --
10/27/2018 14:00 654.08 0.12 35.4 100.0 --
10/27/2018 13:00 654.10 0.01 33.4 100.0 --
10/27/2018 12:00 654.11 0.00 34.0 91.0 --
10/27/2018 11:00 654.14 0.00 34.3 78.0 --
10/27/2018 10:00 654.17 0.00 34.3 74.0 --
10/27/2018 09:00 654.17 0.00 34.3 74.0 --
10/27/2018 08:00 654.19 0.00 33.1 75.0 --
10/27/2018 07:00 654.24 0.00 32.7 77.0 --
10/27/2018 06:00 654.28 0.00 32.2 79.0 --
10/27/2018 05:00 654.31 0.00 32.0 78.0 --
10/27/2018 04:00 654.31 0.00 32.0 78.0 --
10/27/2018 03:00 654.34 0.00 33.0 73.0 --
10/27/2018 02:00 654.40 0.00 33.5 82.0 --
10/27/2018 01:00 654.43 0.00 33.9 81.0 --
10/27/2018 00:00 654.47 0.00 34.3 75.0 --
10/26/2018 23:00 654.47 0.00 34.3 75.0 --
10/26/2018 22:00 654.50 0.00 34.2 73.0 --
10/26/2018 21:00 654.59 0.00 34.8 64.0 --
10/26/2018 20:00 654.62 0.00 35.8 62.0 --
10/26/2018 19:00 654.66 0.00 43.4 44.0 --
10/26/2018 18:00 654.71 0.00 43.5 30.0 --
10/26/2018 17:00 654.76 0.00 41.8 35.0 --
10/26/2018 16:00 654.76 0.00 41.8 35.0 --
10/26/2018 15:00 654.79 0.00 41.1 34.0 --
10/26/2018 14:00 654.90 0.00 36.8 45.0 --
10/26/2018 13:00 654.90 0.00 36.8 45.0 --
10/26/2018 12:00 654.96 0.00 34.6 50.0 --
10/26/2018 11:00 655.01 0.00 33.6 51.0 --
10/26/2018 10:00 654.98 0.00 32.7 53.0 --
10/26/2018 09:00 654.98 0.00 29.6 67.0 --
10/26/2018 08:00 654.99 0.00 31.4 59.0 --
10/26/2018 07:00 654.99 0.00 31.4 59.0 --
10/26/2018 06:00 654.98 0.00 31.7 59.0 --
10/26/2018 05:00 655.00 0.00 32.7 56.0 --
10/26/2018 04:00 654.97 0.00 33.0 55.0 --
10/26/2018 03:00 654.99 0.00 33.2 57.0 --
10/26/2018 02:00 654.99 0.00 33.2 57.0 --
10/26/2018 01:00 654.99 0.00 33.5 57.0 --
10/26/2018 00:00 654.97 0.00 33.8 58.0 --
10/25/2018 23:00 654.99 0.00 34.0 64.0 --
10/25/2018 22:00 655.00 0.00 34.9 66.0 --
10/25/2018 21:00 655.00 0.00 34.9 66.0 --
10/25/2018 20:00 654.98 0.00 36.9 65.0 --
10/25/2018 19:00 654.97 0.00 38.0 57.0 --
10/25/2018 18:00 654.99 0.00 38.3 58.0 --
10/25/2018 17:00 654.98 0.00 39.4 53.0 --
10/25/2018 16:00 654.98 0.00 39.2 55.0 --
10/25/2018 15:00 654.99 0.00 40.0 57.0 --
10/25/2018 14:00 655.00 0.00 40.0 49.0 --
10/25/2018 13:00 654.98 0.00 38.8 52.0 --
10/25/2018 12:00 654.96 0.00 38.7 59.0 --
10/25/2018 11:00 654.96 0.00 38.7 59.0 --
10/25/2018 10:00 654.96 0.00 38.0 65.0 --
10/25/2018 09:00 654.96 0.00 37.7 77.0 --
10/25/2018 08:00 654.95 0.00 37.7 88.0 --
10/25/2018 07:00 654.95 0.00 34.5 100.0 --
10/25/2018 06:00 654.95 0.00 33.7 100.0 --
10/25/2018 05:00 654.93 0.00 30.7 100.0 --
10/25/2018 04:00 654.93 0.00 32.1 100.0 --
10/25/2018 03:00 654.92 0.00 33.4 94.0 --
10/25/2018 02:00 654.92 0.00 32.5 96.0 --
10/25/2018 01:00 654.92 0.00 32.5 96.0 --
10/25/2018 00:00 654.91 0.00 33.5 89.0 --
10/24/2018 23:00 654.90 0.00 37.2 76.0 --
10/24/2018 22:00 654.88 0.00 37.9 75.0 --
10/24/2018 21:00 654.88 0.00 40.6 78.0 --
10/24/2018 20:00 654.87 0.00 41.3 75.0 --
10/24/2018 19:00 654.83 0.00 43.5 71.0 --
10/24/2018 18:00 654.83 0.00 43.5 71.0 --
10/24/2018 17:00 654.86 0.00 44.2 70.0 --
10/24/2018 16:00 654.83 0.00 42.8 80.0 --
10/24/2018 15:00 654.83 0.00 42.8 80.0 --
10/24/2018 14:00 654.83 0.02 41.7 87.0 --
10/24/2018 13:00 654.81 0.00 39.8 91.0 --
10/24/2018 12:00 654.79 0.00 40.6 88.0 --
10/24/2018 11:00 654.80 0.00 40.7 91.0 --
10/24/2018 10:00 654.80 0.00 40.7 91.0 --
10/24/2018 09:00 654.80 0.00 40.9 94.0 --
10/24/2018 08:00 654.78 0.00 40.5 95.0 --
10/24/2018 07:00 654.78 0.00 41.3 99.0 --
10/24/2018 06:00 654.77 0.00 40.1 100.0 --
10/24/2018 05:00 654.76 0.01 39.4 100.0 --
10/24/2018 04:00 654.76 0.00 38.8 100.0 --
10/24/2018 03:00 654.76 0.00 38.8 100.0 --
10/24/2018 02:00 654.74 0.00 38.8 100.0 --
10/24/2018 01:00 654.74 0.00 39.4 100.0 --
10/24/2018 00:00 654.75 0.01 39.3 100.0 --
10/23/2018 23:00 654.74 0.00 39.0 100.0 --
10/23/2018 22:00 654.74 0.00 39.0 100.0 --
10/23/2018 21:00 654.74 0.01 39.0 100.0 --
10/23/2018 20:00 654.73 0.02 39.8 100.0 --
10/23/2018 19:00 654.73 0.63 39.3 100.0 --
10/23/2018 18:00 654.67 0.01 48.1 95.0 --
10/23/2018 17:00 654.69 0.00 46.6 90.0 --
10/23/2018 16:00 654.69 0.00 45.9 85.0 --
10/23/2018 15:00 654.69 0.00 45.9 85.0 --
10/23/2018 14:00 654.68 0.00 45.2 79.0 --
10/23/2018 13:00 654.68 0.00 43.1 77.0 --
10/23/2018 12:00 654.68 0.00 43.1 77.0 --
10/23/2018 11:00 654.68 0.00 40.1 85.0 --
10/23/2018 10:00 654.68 0.00 38.0 92.0 --
10/23/2018 09:00 654.68 0.00 36.8 97.0 --
10/23/2018 08:00 654.69 0.00 37.3 93.0 --
10/23/2018 07:00 654.69 0.00 37.8 92.0 --
10/23/2018 06:00 654.69 0.00 38.5 88.0 --
10/23/2018 05:00 654.69 0.00 38.5 88.0 --
10/23/2018 04:00 654.70 0.00 38.4 86.0 --
10/23/2018 03:00 654.69 0.00 39.2 83.0 --
10/23/2018 02:00 654.69 0.00 40.1 79.0 --
10/23/2018 01:00 654.70 0.00 42.6 68.0 --
10/23/2018 00:00 654.70 0.00 42.6 68.0 --
10/22/2018 23:00 654.71 0.00 42.9 70.0 --
10/22/2018 22:00 654.71 0.00 41.1 75.0 --
10/22/2018 21:00 654.71 0.00 41.2 72.0 --
10/22/2018 20:00 654.72 0.00 43.7 57.0 --
10/22/2018 19:00 654.72 0.00 45.8 44.0 --
10/22/2018 18:00 654.72 0.00 46.4 41.0 --
10/22/2018 17:00 654.71 0.00 47.0 40.0 --
10/22/2018 16:00 654.71 0.00 44.5 42.0 --
10/22/2018 15:00 654.72 0.00 43.4 42.0 --
10/22/2018 14:00 654.73 0.00 41.1 46.0 --
10/22/2018 13:00 654.72 0.00 39.3 48.0 --
10/22/2018 12:00 654.72 0.00 39.3 48.0 --
10/22/2018 11:00 654.74 0.00 37.1 54.0 --
10/22/2018 10:00 654.74 0.00 26.4 92.0 --
10/22/2018 09:00 654.74 0.00 27.5 90.0 --
10/22/2018 08:00 654.73 0.00 25.8 89.0 --
10/22/2018 07:00 654.74 0.00 27.0 79.0 --
10/22/2018 06:00 654.73 0.00 26.8 83.0 --
10/22/2018 05:00 654.73 0.00 28.1 81.0 --
10/22/2018 04:00 654.74 0.00 28.1 76.0 --
10/22/2018 03:00 654.74 0.00 28.7 71.0 --
10/22/2018 02:00 654.74 0.00 30.0 65.0 --
10/22/2018 01:00 654.74 0.00 34.1 55.0 --
10/22/2018 00:00 654.74 0.00 34.4 50.0 --
10/21/2018 23:00 654.75 0.00 35.6 50.0 --
10/21/2018 22:00 654.76 0.00 35.6 50.0 --
10/21/2018 21:00 654.76 0.00 35.6 50.0 --
10/21/2018 20:00 654.75 0.00 36.4 51.0 --
10/21/2018 19:00 654.74 0.00 38.2 44.0 --
10/21/2018 18:00 654.74 0.00 38.2 44.0 --
10/21/2018 17:00 654.75 0.00 38.8 42.0 --
10/21/2018 16:00 654.75 0.00 37.6 53.0 --
10/21/2018 15:00 654.78 0.00 37.6 56.0 --
10/21/2018 14:00 654.79 0.00 38.2 61.0 --
10/21/2018 13:00 654.79 0.00 38.2 61.0 --
10/21/2018 12:00 654.79 0.00 38.2 57.0 --
10/21/2018 11:00 654.77 0.00 38.9 58.0 --
10/21/2018 10:00 654.78 0.00 40.8 61.0 --
10/21/2018 09:00 654.78 0.00 42.4 60.0 --
10/21/2018 08:00 654.78 0.00 42.4 60.0 --
10/21/2018 07:00 654.78 0.00 43.9 61.0 --
10/21/2018 06:00 654.77 0.00 44.6 57.0 --
10/21/2018 05:00 654.79 0.00 44.9 62.0 --
10/21/2018 04:00 654.78 0.00 42.6 89.0 --
10/21/2018 03:00 654.78 0.00 42.6 89.0 --
10/21/2018 02:00 654.79 0.00 41.5 89.0 --
10/21/2018 01:00 654.79 0.00 40.3 91.0 --
10/21/2018 00:00 654.80 0.00 41.8 87.0 --
10/20/2018 23:00 654.80 0.00 44.5 80.0 --
10/20/2018 22:00 654.81 0.00 45.2 80.0 --
10/20/2018 21:00 654.81 0.00 48.0 74.0 --
10/20/2018 20:00 654.81 0.00 48.0 74.0 --
10/20/2018 19:00 654.80 0.00 56.1 49.0 --
10/20/2018 18:00 654.81 0.00 58.9 41.0 --
10/20/2018 17:00 654.82 0.00 58.5 47.0 --
10/20/2018 16:00 654.82 0.00 56.8 61.0 --
10/20/2018 15:00 654.82 0.00 56.8 61.0 --
10/20/2018 14:00 654.81 0.00 56.0 64.0 --
10/20/2018 13:00 654.84 0.00 55.4 69.0 --
10/20/2018 12:00 654.83 0.00 53.7 74.0 --
10/20/2018 11:00 654.83 0.00 52.6 76.0 --
10/20/2018 10:00 654.83 0.00 52.6 76.0 --
10/20/2018 09:00 654.84 0.00 52.3 73.0 --
10/20/2018 08:00 654.83 0.00 51.4 71.0 --
10/20/2018 07:00 654.84 0.00 52.2 68.0 --
10/20/2018 06:00 654.85 0.00 51.6 69.0 --
10/20/2018 05:00 654.85 0.00 51.6 69.0 --
10/20/2018 04:00 654.85 0.00 51.4 67.0 --
10/20/2018 03:00 654.84 0.00 50.7 58.0 --
10/20/2018 02:00 654.86 0.00 51.1 55.0 --
10/20/2018 01:00 654.86 0.00 51.6 55.0 --
10/20/2018 00:00 654.85 0.00 52.2 57.0 --
10/19/2018 23:00 654.87 0.00 50.6 64.0 --
10/19/2018 22:00 654.87 0.00 50.6 64.0 --
10/19/2018 21:00 654.87 0.00 51.4 62.0 --
10/19/2018 20:00 654.88 0.00 55.7 56.0 --
10/19/2018 19:00 654.88 0.00 59.8 46.0 --
10/19/2018 18:00 654.87 0.00 58.9 43.0 --
10/19/2018 17:00 654.87 0.00 58.9 43.0 --
10/19/2018 16:00 654.91 0.00 56.8 49.0 --
10/19/2018 15:00 654.89 0.00 51.2 54.0 --
10/19/2018 14:00 654.89 0.00 47.9 58.0 --
10/19/2018 13:00 654.91 0.00 45.1 62.0 --
10/19/2018 12:00 654.91 0.00 45.1 62.0 --
10/19/2018 11:00 654.90 0.00 43.1 65.0 --
10/19/2018 10:00 654.91 0.00 39.3 75.0 --
10/19/2018 09:00 654.92 0.00 35.6 80.0 --
10/19/2018 08:00 654.91 0.00 31.7 86.0 --
10/19/2018 07:00 654.91 0.00 31.7 86.0 --
10/19/2018 06:00 654.92 0.00 31.1 84.0 --
10/19/2018 05:00 654.92 0.00 31.7 79.0 --
10/19/2018 04:00 654.92 0.00 30.5 87.0 --
10/19/2018 03:00 654.93 0.00 29.9 80.0 --
10/19/2018 02:00 654.92 0.00 28.4 83.0 --
10/19/2018 01:00 654.93 0.00 29.5 79.0 --
10/19/2018 00:00 654.93 0.00 29.5 79.0 --
10/18/2018 23:00 654.94 0.00 31.5 78.0 --
10/18/2018 22:00 654.93 0.00 34.4 57.0 --
10/18/2018 21:00 654.93 0.00 34.4 57.0 --
10/18/2018 20:00 654.95 0.00 38.4 52.0 --
10/18/2018 19:00 654.97 0.00 41.1 37.0 --
10/18/2018 18:00 654.97 0.00 41.0 37.0 --
10/18/2018 17:00 654.96 0.00 40.9 32.0 --
10/18/2018 16:00 655.02 0.00 39.1 35.0 --
10/18/2018 15:00 654.92 0.00 38.0 36.0 --
10/18/2018 14:00 654.92 0.00 38.0 36.0 --
10/18/2018 13:00 655.00 0.00 37.2 41.0 --
10/18/2018 12:00 654.97 0.00 35.6 47.0 --
10/18/2018 11:00 654.98 0.00 34.2 51.0 --
10/18/2018 10:00 654.98 0.00 33.6 57.0 --
10/18/2018 09:00 654.99 0.00 34.0 57.0 --
10/18/2018 08:00 654.99 0.00 33.6 67.0 --
10/18/2018 07:00 655.00 0.01 33.4 76.0 --
10/18/2018 06:00 655.01 0.00 34.7 71.0 --
10/18/2018 05:00 655.02 0.00 34.3 88.0 --
10/18/2018 04:00 655.02 0.00 34.3 88.0 --
10/18/2018 03:00 655.04 0.01 36.4 82.0 --
10/18/2018 02:00 655.02 0.00 36.7 89.0 --
10/18/2018 01:00 655.02 0.01 40.6 75.0 --
10/18/2018 00:00 655.04 0.00 40.8 82.0 --
10/17/2018 23:00 655.04 0.00 41.5 86.0 --
10/17/2018 22:00 655.06 0.00 42.5 83.0 --
10/17/2018 21:00 655.04 0.04 41.5 91.0 --
10/17/2018 20:00 655.06 0.00 46.0 78.0 --
10/17/2018 19:00 655.05 0.00 46.9 80.0 --
10/17/2018 18:00 655.05 0.01 46.9 80.0 --
10/17/2018 17:00 655.06 0.00 46.4 84.0 --
10/17/2018 16:00 655.08 0.00 53.7 50.0 --
10/17/2018 15:00 655.07 0.00 53.5 52.0 --
10/17/2018 14:00 655.11 0.00 51.4 54.0 --
10/17/2018 13:00 655.11 0.00 51.4 54.0 --
10/17/2018 12:00 655.08 0.00 49.4 62.0 --
10/17/2018 11:00 655.08 0.00 45.4 67.0 --
10/17/2018 10:00 655.09 0.00 43.2 74.0 --
10/17/2018 09:00 655.10 0.00 38.7 100.0 --
10/17/2018 08:00 655.10 0.00 38.7 100.0 --
10/17/2018 07:00 655.10 0.00 37.3 100.0 --
10/17/2018 06:00 655.11 0.00 38.1 94.0 --
10/17/2018 05:00 655.11 0.00 37.9 100.0 --
10/17/2018 04:00 655.12 0.00 36.9 100.0 --
10/17/2018 03:00 655.12 0.00 36.3 100.0 --
10/17/2018 02:00 655.13 0.00 36.7 100.0 --
10/17/2018 01:00 655.14 0.00 38.5 90.0 --
10/17/2018 00:00 655.15 0.00 40.1 86.0 --
10/16/2018 23:00 655.16 0.00 41.2 80.0 --
10/16/2018 22:00 655.16 0.00 41.2 80.0 --
10/16/2018 21:00 655.17 0.00 45.3 61.0 --
10/16/2018 20:00 655.18 0.00 49.9 52.0 --
10/16/2018 19:00 655.18 0.00 51.9 45.0 --
10/16/2018 18:00 655.18 0.00 52.8 41.0 --
10/16/2018 17:00 655.19 0.00 51.9 42.0 --
10/16/2018 16:00 655.20 0.00 51.0 45.0 --
10/16/2018 15:00 655.21 0.00 49.8 40.0 --
10/16/2018 14:00 655.24 0.00 48.7 47.0 --
10/16/2018 13:00 655.24 0.00 47.5 49.0 --
10/16/2018 12:00 655.24 0.00 47.5 49.0 --
10/16/2018 11:00 655.24 0.00 46.1 54.0 --
10/16/2018 10:00 655.27 0.00 41.9 60.0 --
10/16/2018 09:00 655.29 0.00 41.3 58.0 --
10/16/2018 08:00 655.30 0.00 42.5 55.0 --
10/16/2018 07:00 655.31 0.00 43.7 49.0 --
10/16/2018 06:00 655.30 0.00 46.2 48.0 --
10/16/2018 05:00 655.30 0.00 46.2 48.0 --
10/16/2018 04:00 655.30 0.01 49.7 56.0 --
10/16/2018 03:00 655.35 0.00 53.9 82.0 --
10/16/2018 02:00 655.39 0.03 55.3 90.0 --
10/16/2018 01:00 655.40 0.03 61.2 91.0 --
10/16/2018 00:00 655.39 0.00 61.0 99.0 --
10/15/2018 23:00 655.40 0.03 60.6 100.0 --
10/15/2018 22:00 655.42 0.00 60.0 100.0 --
10/15/2018 21:00 655.42 0.00 60.0 100.0 --
10/15/2018 20:00 655.42 0.01 59.5 100.0 --
10/15/2018 19:00 655.46 0.00 50.2 100.0 --
10/15/2018 18:00 655.48 0.00 49.5 100.0 --
10/15/2018 17:00 655.50 0.00 48.4 100.0 --
10/15/2018 16:00 655.50 0.00 48.4 100.0 --
10/15/2018 15:00 655.50 0.03 46.8 100.0 --
10/15/2018 14:00 655.54 0.01 40.8 100.0 --
10/15/2018 13:00 655.56 0.01 40.1 100.0 --
10/15/2018 12:00 655.59 0.00 39.0 100.0 --
10/15/2018 11:00 655.59 0.00 39.0 100.0 --
10/15/2018 10:00 655.61 0.00 39.9 100.0 --
10/15/2018 09:00 655.63 0.00 36.9 100.0 --
10/15/2018 08:00 655.63 0.00 36.9 100.0 --
10/15/2018 07:00 655.62 0.00 36.0 100.0 --
10/15/2018 06:00 655.63 0.00 38.0 100.0 --
10/15/2018 05:00 655.63 0.00 38.6 100.0 --
10/15/2018 04:00 655.63 0.00 39.4 100.0 --
10/15/2018 03:00 655.63 0.00 39.6 100.0 --
10/15/2018 02:00 655.63 0.00 40.1 100.0 --
10/15/2018 01:00 655.63 0.00 40.7 100.0 --
10/15/2018 00:00 655.63 0.00 41.8 100.0 --
10/14/2018 23:00 655.64 0.00 42.9 95.0 --
10/14/2018 22:00 655.64 0.00 43.8 93.0 --
10/14/2018 21:00 655.63 0.00 44.7 87.0 --
10/14/2018 20:00 655.64 0.00 48.2 77.0 --
10/14/2018 19:00 655.64 0.00 56.2 50.0 --
10/14/2018 18:00 655.65 0.00 54.8 45.0 --
10/14/2018 17:00 655.65 0.00 54.8 45.0 --
10/14/2018 16:00 655.65 0.00 53.5 44.0 --
10/14/2018 15:00 655.65 0.00 50.8 53.0 --
10/14/2018 14:00 655.64 0.00 49.2 51.0 --
10/14/2018 13:00 655.65 0.00 47.3 61.0 --
10/14/2018 12:00 655.65 0.00 45.1 68.0 --
10/14/2018 11:00 655.65 0.00 41.1 94.0 --
10/14/2018 10:00 655.65 0.00 41.1 94.0 --
10/14/2018 09:00 655.65 0.00 36.8 100.0 --
10/14/2018 08:00 655.64 0.00 34.3 100.0 --
10/14/2018 07:00 655.64 0.00 34.3 100.0 --
10/14/2018 06:00 655.65 0.00 36.2 100.0 --
10/14/2018 05:00 655.64 0.00 36.4 100.0 --
10/14/2018 04:00 655.64 0.00 36.4 100.0 --
10/14/2018 03:00 655.63 0.00 37.8 100.0 --
10/14/2018 02:00 655.62 0.00 37.9 100.0 --
10/14/2018 01:00 655.63 0.00 38.1 100.0 --
10/14/2018 00:00 655.62 0.00 40.7 100.0 --
10/13/2018 23:00 655.62 0.00 41.3 100.0 --
10/13/2018 22:00 655.61 0.00 42.4 97.0 --
10/13/2018 21:00 655.61 0.00 42.4 97.0 --
10/13/2018 20:00 655.60 0.00 45.2 87.0 --
10/13/2018 19:00 655.58 0.00 48.2 68.0 --
10/13/2018 18:00 655.56 0.00 47.9 74.0 --
10/13/2018 17:00 655.56 0.00 48.0 70.0 --
10/13/2018 16:00 655.56 0.01 48.0 70.0 --
10/13/2018 15:00 655.59 0.00 45.4 79.0 --
10/13/2018 14:00 655.67 0.00 44.1 93.0 --
10/13/2018 13:00 655.72 0.02 44.0 92.0 --
10/13/2018 12:00 655.76 0.00 43.8 90.0 --
10/13/2018 11:00 655.76 0.00 43.8 90.0 --
10/13/2018 10:00 655.82 0.00 44.3 91.0 --
10/13/2018 09:00 655.90 0.00 43.5 94.0 --
10/13/2018 08:00 655.91 0.00 43.2 95.0 --
10/13/2018 07:00 655.92 0.00 43.1 89.0 --
10/13/2018 06:00 655.92 0.00 42.2 93.0 --
10/13/2018 05:00 655.93 0.00 42.3 93.0 --
10/13/2018 04:00 655.94 0.00 42.2 95.0 --
10/13/2018 03:00 655.94 0.00 42.2 95.0 --
10/13/2018 02:00 655.93 0.00 43.8 81.0 --
10/13/2018 01:00 655.93 0.00 42.0 90.0 --
10/13/2018 00:00 655.94 0.00 45.5 80.0 --
10/12/2018 23:00 655.95 0.00 48.6 68.0 --
10/12/2018 22:00 655.95 0.00 48.6 68.0 --
10/12/2018 21:00 655.94 0.00 45.9 86.0 --
10/12/2018 20:00 655.95 0.00 53.8 55.0 --
10/12/2018 19:00 655.95 0.00 56.6 55.0 --
10/12/2018 18:00 655.96 0.00 56.3 58.0 --
10/12/2018 17:00 655.96 0.00 56.3 58.0 --
10/12/2018 16:00 655.95 0.01 55.7 57.0 --
10/12/2018 15:00 655.96 0.00 53.9 68.0 --
10/12/2018 14:00 655.96 0.00 54.1 72.0 --
10/12/2018 13:00 655.94 0.00 52.7 80.0 --
10/12/2018 12:00 655.94 0.00 52.7 80.0 --
10/12/2018 11:00 655.95 0.00 53.7 87.0 --
10/12/2018 10:00 655.94 0.00 54.0 93.0 --
10/12/2018 09:00 655.94 0.00 55.0 100.0 --
10/12/2018 08:00 655.94 0.00 54.0 100.0 --
10/12/2018 07:00 655.94 0.00 54.0 100.0 --
10/12/2018 06:00 655.94 0.00 53.8 100.0 --
10/12/2018 05:00 655.93 0.00 53.6 100.0 --
10/12/2018 04:00 655.93 0.00 53.8 100.0 --
10/12/2018 03:00 655.90 0.00 53.6 100.0 --
10/12/2018 02:00 655.90 0.00 53.6 100.0 --
10/12/2018 01:00 655.91 0.00 53.5 100.0 --
10/12/2018 00:00 655.90 0.00 53.1 100.0 --
10/11/2018 23:00 655.89 0.00 53.2 100.0 --
10/11/2018 22:00 655.88 0.00 53.0 100.0 --
10/11/2018 21:00 655.88 0.00 53.0 100.0 --
10/11/2018 20:00 655.86 0.01 53.5 100.0 --
10/11/2018 19:00 655.86 0.05 52.9 100.0 --
10/11/2018 18:00 655.84 0.17 53.9 100.0 --
10/11/2018 17:00 655.82 0.00 54.0 100.0 --
10/11/2018 16:00 655.82 0.04 54.0 100.0 --
10/11/2018 15:00 655.81 0.06 54.3 100.0 --
10/11/2018 14:00 655.80 0.05 54.0 100.0 --
10/11/2018 13:00 655.79 0.05 53.5 100.0 --
10/11/2018 12:00 655.78 0.35 54.0 100.0 --
10/11/2018 11:00 655.75 0.14 53.7 100.0 --
10/11/2018 10:00 655.75 0.00 54.4 100.0 --
10/11/2018 09:00 655.75 0.29 54.4 100.0 --
10/11/2018 08:00 655.73 0.06 55.6 100.0 --
10/11/2018 07:00 655.71 0.00 61.0 100.0 --
10/11/2018 06:00 655.72 0.00 63.4 100.0 --
10/11/2018 05:00 655.71 0.00 63.1 100.0 --
10/11/2018 04:00 655.71 0.00 63.1 100.0 --
10/11/2018 03:00 655.72 0.00 63.8 100.0 --
10/11/2018 02:00 655.72 0.00 65.0 100.0 --
10/11/2018 01:00 655.72 0.00 65.0 100.0 --
10/11/2018 00:00 655.72 0.00 63.4 100.0 --
10/10/2018 23:00 655.73 0.00 63.5 100.0 --
10/10/2018 22:00 655.73 0.00 64.6 100.0 --
10/10/2018 21:00 655.71 0.00 67.4 100.0 --
10/10/2018 20:00 655.73 0.00 71.3 85.0 --
10/10/2018 19:00 655.72 0.00 78.6 63.0 --
10/10/2018 18:00 655.72 0.00 78.6 63.0 --
10/10/2018 17:00 655.72 0.00 78.9 61.0 --
10/10/2018 16:00 655.72 0.00 77.8 61.0 --
10/10/2018 15:00 655.73 0.00 76.3 62.0 --
10/10/2018 14:00 655.73 0.00 76.0 64.0 --
10/10/2018 13:00 655.73 0.00 74.5 68.0 --
10/10/2018 12:00 655.73 0.00 70.1 89.0 --
10/10/2018 11:00 655.73 0.00 63.8 100.0 --
10/10/2018 10:00 655.73 0.00 61.5 100.0 --
10/10/2018 09:00 655.73 0.00 61.6 100.0 --
10/10/2018 08:00 655.73 0.00 61.6 100.0 --
10/10/2018 07:00 655.73 0.00 61.9 100.0 --
10/10/2018 06:00 655.74 0.00 62.5 100.0 --
10/10/2018 05:00 655.74 0.00 63.1 100.0 --
10/10/2018 04:00 655.73 0.00 64.0 100.0 --
10/10/2018 03:00 655.73 0.00 64.0 100.0 --
10/10/2018 02:00 655.73 0.00 64.9 100.0 --
10/10/2018 01:00 655.74 0.00 67.2 100.0 --
10/10/2018 00:00 655.74 0.00 66.3 100.0 --
10/09/2018 23:00 655.74 0.00 68.4 100.0 --
10/09/2018 22:00 655.74 0.00 68.4 100.0 --
10/09/2018 21:00 655.74 0.00 68.6 100.0 --
10/09/2018 20:00 655.73 0.00 71.2 88.0 --
10/09/2018 19:00 655.75 0.00 74.8 76.0 --
10/09/2018 18:00 655.74 0.00 74.7 75.0 --
10/09/2018 17:00 655.74 0.00 74.7 75.0 --
10/09/2018 16:00 655.75 0.00 76.3 71.0 --
10/09/2018 15:00 655.75 0.00 73.8 74.0 --
10/09/2018 14:00 655.74 0.00 71.4 79.0 --
10/09/2018 13:00 655.75 0.00 68.7 86.0 --
10/09/2018 12:00 655.75 0.00 68.7 86.0 --
10/09/2018 11:00 655.74 0.00 65.7 95.0 --
10/09/2018 10:00 655.75 0.00 62.2 100.0 --
10/09/2018 09:00 655.74 0.00 59.7 100.0 --
10/09/2018 08:00 655.74 0.00 60.4 100.0 --
10/09/2018 07:00 655.74 0.00 59.2 100.0 --
10/09/2018 06:00 655.75 0.00 55.4 100.0 --
10/09/2018 05:00 655.75 0.00 51.5 100.0 --
10/09/2018 04:00 655.74 0.00 50.7 100.0 --
10/09/2018 03:00 655.75 0.00 50.5 100.0 --
10/09/2018 02:00 655.75 0.00 50.5 100.0 --
10/09/2018 01:00 655.75 0.00 50.9 100.0 --
10/09/2018 00:00 655.75 0.00 49.4 100.0 --
10/08/2018 23:00 655.75 0.00 49.0 100.0 --
10/08/2018 22:00 655.75 0.00 48.9 100.0 --
10/08/2018 21:00 655.74 0.00 48.9 100.0 --
10/08/2018 20:00 655.75 0.00 49.2 100.0 --
10/08/2018 19:00 655.75 0.00 49.2 100.0 --
10/08/2018 18:00 655.75 0.00 49.0 100.0 --
10/08/2018 17:00 655.76 0.00 48.5 100.0 --
10/08/2018 16:00 655.76 0.00 48.5 100.0 --
10/08/2018 15:00 655.75 0.00 48.6 100.0 --
10/08/2018 14:00 655.75 0.00 48.0 100.0 --
10/08/2018 13:00 655.74 0.01 47.4 100.0 --
10/08/2018 12:00 655.75 0.00 47.7 100.0 --
10/08/2018 11:00 655.76 0.00 48.2 100.0 --
10/08/2018 10:00 655.76 0.00 48.2 100.0 --
10/08/2018 09:00 655.76 0.00 48.2 100.0 --
10/08/2018 08:00 655.76 0.01 50.1 100.0 --
10/08/2018 07:00 655.76 0.00 52.8 100.0 --
10/08/2018 06:00 655.76 0.00 52.8 100.0 --
10/08/2018 05:00 655.76 0.01 52.7 100.0 --
10/08/2018 04:00 655.76 0.00 53.5 100.0 --
10/08/2018 03:00 655.76 0.00 54.5 100.0 --
10/08/2018 02:00 655.76 0.00 54.9 100.0 --
10/08/2018 01:00 655.76 0.00 56.4 100.0 --
10/08/2018 00:00 655.77 0.01 57.0 100.0 --
10/07/2018 23:00 655.76 0.01 58.1 100.0 --
10/07/2018 22:00 655.77 0.01 58.3 100.0 --
10/07/2018 21:00 655.76 0.00 62.0 100.0 --
10/07/2018 20:00 655.76 0.00 62.0 100.0 --
10/07/2018 19:00 655.76 0.00 63.8 94.0 --
10/07/2018 18:00 655.77 0.00 66.1 93.0 --
10/07/2018 17:00 655.77 0.00 67.0 90.0 --
10/07/2018 16:00 655.77 0.00 67.4 90.0 --
10/07/2018 15:00 655.77 0.00 64.7 100.0 --
10/07/2018 14:00 655.77 0.00 64.4 98.0 --
10/07/2018 13:00 655.78 0.00 67.7 89.0 --
10/07/2018 12:00 655.78 0.00 67.7 89.0 --
10/07/2018 11:00 655.78 0.00 65.8 95.0 --
10/07/2018 10:00 655.77 0.00 60.4 100.0 --
10/07/2018 09:00 655.78 0.00 60.9 100.0 --
10/07/2018 08:00 655.79 0.00 60.6 100.0 --
10/07/2018 07:00 655.78 0.00 58.4 100.0 --
10/07/2018 06:00 655.79 0.00 60.8 100.0 --
10/07/2018 05:00 655.79 0.00 60.0 100.0 --
10/07/2018 04:00 655.79 0.00 59.6 100.0 --
10/07/2018 03:00 655.80 0.00 57.8 100.0 --
10/07/2018 02:00 655.79 0.00 57.0 100.0 --
10/07/2018 01:00 655.80 0.00 57.3 100.0 --
10/07/2018 00:00 655.80 0.00 56.2 98.0 --
10/06/2018 23:00 655.80 0.00 56.9 95.0 --
10/06/2018 22:00 655.79 0.00 56.6 92.0 --
10/06/2018 21:00 655.79 0.00 56.6 92.0 --
10/06/2018 20:00 655.80 0.00 56.1 88.0 --
10/06/2018 19:00 655.81 0.00 56.6 84.0 --
10/06/2018 18:00 655.81 0.00 57.2 80.0 --
10/06/2018 17:00 655.81 0.00 57.8 75.0 --
10/06/2018 16:00 655.81 0.00 57.9 74.0 --
10/06/2018 15:00 655.80 0.00 56.3 74.0 --
10/06/2018 14:00 655.81 0.00 54.0 80.0 --
10/06/2018 13:00 655.82 0.00 51.1 100.0 --
10/06/2018 12:00 655.82 0.00 47.9 100.0 --
10/06/2018 11:00 655.82 0.00 47.9 100.0 --
10/06/2018 10:00 655.82 0.00 45.3 100.0 --
10/06/2018 09:00 655.82 0.00 43.2 100.0 --
10/06/2018 08:00 655.83 0.00 44.5 100.0 --
10/06/2018 07:00 655.83 0.00 44.4 100.0 --
10/06/2018 06:00 655.83 0.00 44.4 100.0 --
10/06/2018 05:00 655.83 0.00 45.9 100.0 --
10/06/2018 04:00 655.84 0.00 44.3 100.0 --
10/06/2018 03:00 655.84 0.00 45.4 100.0 --
10/06/2018 02:00 655.84 0.00 47.3 100.0 --
10/06/2018 01:00 655.84 0.00 47.3 100.0 --
10/06/2018 00:00 655.85 0.00 46.1 100.0 --
10/05/2018 23:00 655.85 0.00 46.6 100.0 --
10/05/2018 22:00 655.86 0.00 49.3 100.0 --
10/05/2018 21:00 655.86 0.00 49.0 99.0 --
10/05/2018 20:00 655.87 0.00 53.2 84.0 --
10/05/2018 19:00 655.86 0.00 58.4 69.0 --
10/05/2018 18:00 655.87 0.00 60.6 48.0 --
10/05/2018 17:00 655.88 0.00 58.4 48.0 --
10/05/2018 16:00 655.88 0.00 57.2 51.0 --
10/05/2018 15:00 655.88 0.00 57.2 51.0 --
10/05/2018 14:00 655.88 0.00 55.0 57.0 --
10/05/2018 13:00 655.89 0.00 52.5 62.0 --
10/05/2018 12:00 655.89 0.00 50.1 65.0 --
10/05/2018 11:00 655.90 0.00 47.5 68.0 --
10/05/2018 10:00 655.90 0.00 47.5 68.0 --
10/05/2018 09:00 655.89 0.00 45.9 74.0 --
10/05/2018 08:00 655.91 0.00 48.3 78.0 --
10/05/2018 07:00 655.91 0.00 51.0 82.0 --
10/05/2018 06:00 655.92 0.00 54.1 76.0 --
10/05/2018 05:00 655.92 0.00 54.1 76.0 --
10/05/2018 04:00 655.92 0.00 57.2 69.0 --
10/05/2018 03:00 655.92 0.00 62.5 83.0 --
10/05/2018 02:00 655.93 0.00 62.8 100.0 --
10/05/2018 01:00 655.93 0.00 60.8 100.0 --
10/05/2018 00:00 655.93 0.00 60.8 100.0 --
10/04/2018 23:00 655.94 0.00 61.9 100.0 --
10/04/2018 22:00 655.95 0.00 66.0 100.0 --
10/04/2018 21:00 655.95 0.00 68.1 93.0 --
10/04/2018 20:00 655.96 0.00 68.0 91.0 --
10/04/2018 19:00 655.96 0.00 68.0 91.0 --
10/04/2018 18:00 655.96 0.00 68.8 85.0 --
10/04/2018 17:00 655.97 0.00 67.7 82.0 --
10/04/2018 16:00 655.97 0.00 68.4 80.0 --
10/04/2018 15:00 655.99 0.00 67.6 79.0 --
10/04/2018 14:00 655.99 0.00 67.6 79.0 --
10/04/2018 13:00 656.00 0.00 65.9 83.0 --
10/04/2018 12:00 656.01 0.00 62.4 92.0 --
10/04/2018 11:00 656.01 0.00 60.0 100.0 --
10/04/2018 10:00 656.01 0.00 57.6 100.0 --
10/04/2018 09:00 656.01 0.00 57.6 100.0 --
10/04/2018 08:00 656.02 0.00 56.8 100.0 --
10/04/2018 07:00 656.02 0.00 56.3 100.0 --
10/04/2018 06:00 656.03 0.00 56.0 100.0 --
10/04/2018 05:00 656.02 0.00 55.7 100.0 --
10/04/2018 04:00 656.02 0.00 55.7 100.0 --
10/04/2018 03:00 656.03 0.00 56.2 100.0 --
10/04/2018 02:00 656.03 0.00 55.0 100.0 --
10/04/2018 01:00 656.04 0.00 54.5 100.0 --
10/04/2018 00:00 656.05 0.00 54.6 100.0 --
10/03/2018 23:00 656.05 0.00 55.7 100.0 --
10/03/2018 22:00 656.05 0.00 56.9 100.0 --
10/03/2018 21:00 656.05 0.00 56.9 100.0 --
10/03/2018 20:00 656.06 0.00 58.2 100.0 --
10/03/2018 19:00 656.06 0.00 60.2 100.0 --
10/03/2018 18:00 656.06 0.00 60.2 100.0 --
10/03/2018 17:00 656.05 0.00 60.7 100.0 --
10/03/2018 16:00 656.05 0.00 58.2 100.0 --
10/03/2018 15:00 656.04 0.00 56.9 100.0 --
10/03/2018 14:00 656.04 0.00 54.5 100.0 --
10/03/2018 13:00 656.05 0.00 53.3 100.0 --
10/03/2018 12:00 656.03 0.00 51.8 100.0 --
10/03/2018 11:00 656.04 0.00 51.3 100.0 --
10/03/2018 10:00 656.03 0.00 50.0 100.0 --
10/03/2018 09:00 656.02 0.00 50.2 100.0 --
10/03/2018 08:00 656.01 0.00 50.1 100.0 --
10/03/2018 07:00 656.01 0.00 49.8 100.0 --
10/03/2018 06:00 656.01 0.00 49.8 100.0 --
10/03/2018 05:00 656.00 0.00 50.0 100.0 --
10/03/2018 04:00 655.99 0.00 50.2 100.0 --
10/03/2018 03:00 655.99 0.15 50.1 100.0 --
10/03/2018 02:00 655.95 0.00 50.1 100.0 --
10/03/2018 01:00 655.94 0.00 50.9 100.0 --
10/03/2018 00:00 655.92 0.00 50.6 100.0 --
10/02/2018 23:00 655.92 0.01 50.6 100.0 --
10/02/2018 22:00 655.89 0.00 51.1 100.0 --
10/02/2018 21:00 655.87 0.00 51.5 100.0 --
10/02/2018 20:00 655.87 0.01 51.5 100.0 --
10/02/2018 19:00 655.86 0.53 51.5 100.0 --
10/02/2018 18:00 655.79 0.22 52.3 100.0 --
10/02/2018 17:00 655.77 0.14 52.4 100.0 --
10/02/2018 16:00 655.76 0.08 52.1 100.0 --
10/02/2018 15:00 655.75 0.00 51.8 100.0 --
10/02/2018 14:00 655.76 0.00 51.1 100.0 --
10/02/2018 13:00 655.75 0.00 51.0 100.0 --
10/02/2018 12:00 655.75 0.00 51.0 100.0 --
10/02/2018 11:00 655.74 0.00 51.0 100.0 --
10/02/2018 10:00 655.75 0.00 50.1 100.0 --
10/02/2018 09:00 655.74 0.03 49.8 100.0 --
10/02/2018 08:00 655.74 0.00 49.7 100.0 --
10/02/2018 07:00 655.74 0.09 50.0 100.0 --
10/02/2018 06:00 655.74 0.11 50.2 100.0 --
10/02/2018 05:00 655.73 0.01 50.9 100.0 --
10/02/2018 04:00 655.73 0.01 51.0 100.0 --
10/02/2018 03:00 655.72 0.00 51.0 100.0 --
10/02/2018 02:00 655.73 0.00 51.3 100.0 --
10/02/2018 01:00 655.73 0.00 51.4 100.0 --
10/02/2018 00:00 655.73 0.01 51.4 100.0 --
10/01/2018 23:00 655.73 0.00 52.5 100.0 --
10/01/2018 22:00 655.73 0.00 53.5 100.0 --
10/01/2018 21:00 655.73 0.00 53.6 100.0 --
10/01/2018 20:00 655.73 0.00 54.1 100.0 --
10/01/2018 19:00 655.73 0.00 54.1 100.0 --
10/01/2018 18:00 655.73 0.02 54.5 100.0 --
10/01/2018 17:00 655.73 0.01 54.0 100.0 --
10/01/2018 16:00 655.73 0.05 53.7 100.0 --
10/01/2018 15:00 655.72 0.10 53.5 100.0 --
10/01/2018 14:00 655.72 0.02 52.9 100.0 --
10/01/2018 13:00 655.72 0.00 52.3 100.0 --
10/01/2018 12:00 655.72 0.00 51.6 100.0 --
10/01/2018 11:00 655.72 0.00 51.4 100.0 --
10/01/2018 10:00 655.72 0.00 51.6 100.0 --
10/01/2018 09:00 655.72 0.00 51.5 100.0 --
10/01/2018 08:00 655.71 0.00 51.5 100.0 --
10/01/2018 07:00 655.71 0.00 51.5 100.0 --
10/01/2018 06:00 655.73 0.00 51.8 100.0 --
10/01/2018 05:00 655.72 0.00 52.0 97.0 --
10/01/2018 04:00 655.74 0.00 52.0 95.0 --
10/01/2018 03:00 655.73 0.00 51.1 98.0 --
10/01/2018 02:00 655.73 0.00 50.5 100.0 --
10/01/2018 01:00 655.74 0.00 49.3 100.0 --
10/01/2018 00:00 655.73 -- 49.4 100.0 --
09/30/2018 23:00 655.74 -- 50.6 99.0 --
09/30/2018 22:00 655.73 0.00 51.5 100.0 --
09/30/2018 21:00 655.74 0.00 52.6 92.0 --
09/30/2018 20:00 655.75 0.00 57.5 72.0 --
09/30/2018 19:00 655.73 0.00 61.9 52.0 --
09/30/2018 18:00 655.73 0.00 61.9 52.0 --
09/30/2018 17:00 655.75 0.00 61.4 49.0 --
09/30/2018 16:00 655.75 0.00 60.6 48.0 --
09/30/2018 15:00 655.76 0.00 59.8 52.0 --
09/30/2018 14:00 655.76 0.00 58.9 47.0 --
09/30/2018 13:00 655.75 0.00 57.5 60.0 --
09/30/2018 12:00 655.75 0.00 53.0 75.0 --
09/30/2018 11:00 655.76 0.00 49.0 88.0 --
09/30/2018 10:00 655.76 0.00 45.4 100.0 --
09/30/2018 09:00 655.76 0.00 43.9 100.0 --
09/30/2018 08:00 655.76 0.00 43.9 100.0 --
09/30/2018 07:00 655.76 0.00 44.3 100.0 --
09/30/2018 06:00 655.77 0.00 45.5 100.0 --
09/30/2018 05:00 655.77 0.00 46.1 100.0 --
09/30/2018 04:00 655.77 0.00 47.0 100.0 --
09/30/2018 03:00 655.78 0.00 49.3 94.0 --
09/30/2018 02:00 655.77 0.00 50.8 90.0 --
09/30/2018 01:00 655.78 0.00 49.1 99.0 --
09/30/2018 00:00 655.78 0.00 49.6 100.0 --
09/29/2018 23:00 655.78 0.00 50.0 100.0 --
09/29/2018 22:00 655.78 0.00 50.0 100.0 --
09/29/2018 21:00 655.79 0.00 51.7 98.0 --
09/29/2018 20:00 655.79 0.00 58.9 72.0 --
09/29/2018 19:00 655.78 0.00 64.2 47.0 --
09/29/2018 18:00 655.79 0.00 64.8 47.0 --
09/29/2018 17:00 655.80 0.00 62.9 53.0 --
09/29/2018 16:00 655.80 0.00 61.6 59.0 --
09/29/2018 15:00 655.80 0.00 61.3 69.0 --
09/29/2018 14:00 655.80 0.00 60.8 71.0 --
09/29/2018 13:00 655.82 0.00 61.4 68.0 --
09/29/2018 12:00 655.82 0.00 59.1 81.0 --
09/29/2018 11:00 655.81 0.00 57.0 100.0 --
09/29/2018 10:00 655.81 0.00 51.2 100.0 --
09/29/2018 09:00 655.81 0.00 51.2 100.0 --
09/29/2018 08:00 655.82 0.00 49.0 100.0 --
09/29/2018 07:00 655.81 0.00 50.2 100.0 --
09/29/2018 06:00 655.82 0.00 51.1 100.0 --
09/29/2018 05:00 655.82 0.00 50.8 100.0 --
09/29/2018 04:00 655.84 0.00 49.8 100.0 --
09/29/2018 03:00 655.84 0.00 50.0 100.0 --
09/29/2018 02:00 655.84 0.00 51.0 100.0 --
09/29/2018 01:00 655.84 0.00 52.7 100.0 --
09/29/2018 00:00 655.85 0.00 52.8 100.0 --
09/28/2018 23:00 655.85 0.00 52.8 100.0 --
09/28/2018 22:00 655.84 0.00 54.4 100.0 --
09/28/2018 21:00 655.84 0.00 56.1 100.0 --
09/28/2018 20:00 655.85 0.00 58.7 90.0 --
09/28/2018 19:00 655.85 0.00 59.0 83.0 --
09/28/2018 18:00 655.86 0.00 61.3 68.0 --
09/28/2018 17:00 655.86 0.00 59.9 67.0 --
09/28/2018 16:00 655.87 0.00 57.7 77.0 --
09/28/2018 15:00 655.86 0.00 56.1 83.0 --
09/28/2018 14:00 655.88 0.00 55.3 100.0 --
09/28/2018 13:00 655.87 0.02 53.6 100.0 --
09/28/2018 12:00 655.88 0.08 52.9 100.0 --
09/28/2018 11:00 655.88 0.00 52.6 100.0 --
09/28/2018 10:00 655.88 0.01 52.9 100.0 --
09/28/2018 09:00 655.88 0.03 53.9 100.0 --
09/28/2018 08:00 655.88 0.02 53.5 100.0 --
09/28/2018 07:00 655.88 0.01 53.1 100.0 --
09/28/2018 06:00 655.88 0.01 53.3 100.0 --
09/28/2018 05:00 655.89 0.02 52.8 100.0 --
09/28/2018 04:00 655.89 0.00 53.9 98.0 --
09/28/2018 03:00 655.89 0.00 53.9 98.0 --
09/28/2018 02:00 655.88 0.00 53.9 100.0 --
09/28/2018 01:00 655.89 0.00 54.0 92.0 --
09/28/2018 00:00 655.90 0.00 54.9 93.0 --
09/27/2018 23:00 655.89 0.00 56.8 100.0 --
09/27/2018 22:00 655.90 0.00 58.2 100.0 --
09/27/2018 21:00 655.90 0.00 59.4 97.0 --
09/27/2018 20:00 655.90 0.00 59.4 97.0 --
09/27/2018 19:00 655.90 0.00 61.2 87.0 --
09/27/2018 18:00 655.91 0.00 67.1 52.0 --
09/27/2018 17:00 655.91 0.00 67.1 52.0 --
09/27/2018 16:00 655.90 0.00 67.3 47.0 --
09/27/2018 15:00 655.91 0.00 66.3 54.0 --
09/27/2018 14:00 655.91 0.00 65.8 53.0 --
09/27/2018 13:00 655.90 0.00 63.0 66.0 --
09/27/2018 12:00 655.91 0.00 59.9 68.0 --
09/27/2018 11:00 655.91 0.00 56.3 83.0 --
09/27/2018 10:00 655.91 0.00 56.3 83.0 --
09/27/2018 09:00 655.92 0.00 56.0 85.0 --
09/27/2018 08:00 655.91 0.00 54.0 100.0 --
09/27/2018 07:00 655.91 0.00 56.3 98.0 --
09/27/2018 06:00 655.91 0.00 57.4 100.0 --
09/27/2018 05:00 655.90 0.00 60.9 85.0 --
09/27/2018 04:00 655.91 0.00 62.1 100.0 --
09/27/2018 03:00 655.90 0.00 64.5 100.0 --
09/27/2018 02:00 655.90 0.03 66.2 100.0 --
09/27/2018 01:00 655.90 0.00 67.0 100.0 --
09/27/2018 00:00 655.91 0.18 68.2 100.0 --
09/26/2018 23:00 655.90 0.06 70.0 93.0 --
09/26/2018 22:00 655.87 0.00 74.9 85.0 --
09/26/2018 21:00 655.87 0.00 75.2 82.0 --
09/26/2018 20:00 655.86 0.00 75.9 80.0 --
09/26/2018 19:00 655.88 0.00 77.2 77.0 --
09/26/2018 18:00 655.85 0.00 77.9 75.0 --
09/26/2018 17:00 655.88 0.00 77.3 76.0 --
09/26/2018 16:00 655.86 0.00 77.4 75.0 --
09/26/2018 15:00 655.89 0.00 76.4 74.0 --
09/26/2018 14:00 655.89 0.01 76.4 74.0 --
09/26/2018 13:00 655.86 0.00 74.5 85.0 --
09/26/2018 12:00 655.85 0.00 72.1 99.0 --
09/26/2018 11:00 655.85 0.00 65.7 100.0 --
09/26/2018 10:00 655.84 0.00 58.8 100.0 --
09/26/2018 09:00 655.84 0.00 58.8 100.0 --
09/26/2018 08:00 655.84 0.00 57.5 100.0 --
09/26/2018 07:00 655.83 0.00 57.0 100.0 --
09/26/2018 06:00 655.82 0.00 56.9 100.0 --
09/26/2018 05:00 655.80 0.00 57.0 100.0 --
09/26/2018 04:00 655.80 0.00 57.0 100.0 --
09/26/2018 03:00 655.80 0.00 56.7 100.0 --
09/26/2018 02:00 655.79 0.01 56.7 100.0 --
09/26/2018 01:00 655.77 0.00 56.5 100.0 --
09/26/2018 00:00 655.77 0.12 56.4 100.0 --
09/25/2018 23:00 655.75 0.05 56.3 100.0 --
09/25/2018 22:00 655.74 0.13 56.5 100.0 --
09/25/2018 21:00 655.73 0.21 56.3 100.0 --
09/25/2018 20:00 655.70 0.19 56.8 100.0 --
09/25/2018 19:00 655.68 0.00 56.8 100.0 --
09/25/2018 18:00 655.68 0.17 56.8 100.0 --
09/25/2018 17:00 655.67 0.28 55.8 100.0 --
09/25/2018 16:00 655.65 0.05 49.6 100.0 --
09/25/2018 15:00 655.64 0.09 47.4 100.0 --
09/25/2018 14:00 655.64 0.08 47.2 100.0 --
09/25/2018 13:00 655.64 0.03 45.3 100.0 --
09/25/2018 12:00 655.63 0.02 44.7 100.0 --
09/25/2018 11:00 655.63 0.00 43.7 93.0 --
09/25/2018 10:00 655.63 0.00 42.0 100.0 --
09/25/2018 09:00 655.63 0.00 40.9 100.0 --
09/25/2018 08:00 655.63 0.00 40.9 100.0 --
09/25/2018 07:00 655.63 0.00 40.2 100.0 --
09/25/2018 06:00 655.63 0.00 40.0 100.0 --
09/25/2018 05:00 655.63 0.00 40.0 100.0 --
09/25/2018 04:00 655.63 0.00 39.8 100.0 --
09/25/2018 03:00 655.63 0.00 40.1 100.0 --
09/25/2018 02:00 655.62 0.00 40.4 100.0 --
09/25/2018 01:00 655.63 0.00 42.1 100.0 --
09/25/2018 00:00 655.63 0.00 43.8 93.0 --
09/24/2018 23:00 655.63 0.00 44.8 93.0 --
09/24/2018 22:00 655.63 0.00 44.8 93.0 --
09/24/2018 21:00 655.63 0.00 45.4 93.0 --
09/24/2018 20:00 655.64 0.00 48.7 81.0 --
09/24/2018 19:00 655.64 0.00 51.9 70.0 --
09/24/2018 18:00 655.64 0.00 55.6 53.0 --
09/24/2018 17:00 655.64 0.00 55.6 53.0 --
09/24/2018 16:00 655.64 0.00 55.4 51.0 --
09/24/2018 15:00 655.64 0.00 53.4 53.0 --
09/24/2018 14:00 655.64 0.00 51.7 67.0 --
09/24/2018 13:00 655.64 0.00 50.2 70.0 --
09/24/2018 12:00 655.64 0.00 50.2 70.0 --
09/24/2018 11:00 655.64 0.00 49.0 74.0 --
09/24/2018 10:00 655.65 0.00 46.3 100.0 --
09/24/2018 09:00 655.65 0.00 45.7 100.0 --
09/24/2018 08:00 655.65 0.00 44.9 100.0 --
09/24/2018 07:00 655.65 0.00 44.9 100.0 --
09/24/2018 06:00 655.64 0.00 44.4 100.0 --
09/24/2018 05:00 655.64 0.00 45.1 100.0 --
09/24/2018 04:00 655.64 0.00 47.1 100.0 --
09/24/2018 03:00 655.64 0.00 48.3 100.0 --
09/24/2018 02:00 655.64 0.00 50.5 99.0 --
09/24/2018 01:00 655.65 0.00 52.0 100.0 --
09/24/2018 00:00 655.65 0.00 52.0 100.0 --
09/23/2018 23:00 655.65 0.00 52.8 100.0 --
09/23/2018 22:00 655.64 0.00 55.0 96.0 --
09/23/2018 21:00 655.64 0.00 55.0 96.0 --
09/23/2018 20:00 655.65 0.00 56.5 93.0 --
09/23/2018 19:00 655.65 0.00 59.3 79.0 --
09/23/2018 18:00 655.65 0.00 59.9 74.0 --
09/23/2018 17:00 655.66 0.00 63.7 47.0 --
09/23/2018 16:00 655.66 0.00 63.7 47.0 --
09/23/2018 15:00 655.66 0.00 62.9 48.0 --
09/23/2018 14:00 655.66 0.00 61.0 52.0 --
09/23/2018 13:00 655.66 0.00 59.8 53.0 --
09/23/2018 12:00 655.66 0.00 54.4 71.0 --
09/23/2018 11:00 655.66 0.00 49.1 84.0 --
09/23/2018 10:00 655.66 0.00 44.4 100.0 --
09/23/2018 09:00 655.67 0.00 43.2 100.0 --
09/23/2018 08:00 655.66 0.00 44.3 100.0 --
09/23/2018 07:00 655.67 0.00 44.5 100.0 --
09/23/2018 06:00 655.67 0.00 44.4 100.0 --
09/23/2018 05:00 655.67 0.00 45.1 100.0 --
09/23/2018 04:00 655.67 0.00 45.1 100.0 --
09/23/2018 03:00 655.67 0.00 46.1 98.0 --
09/23/2018 02:00 655.66 0.00 47.4 94.0 --
09/23/2018 01:00 655.67 0.00 46.6 94.0 --
09/23/2018 00:00 655.67 0.00 49.4 86.0 --
09/22/2018 23:00 655.68 0.00 50.3 88.0 --
09/22/2018 22:00 655.67 0.00 50.3 86.0 --
09/22/2018 21:00 655.68 0.00 54.4 76.0 --
09/22/2018 20:00 655.68 0.00 54.4 76.0 --
09/22/2018 19:00 655.68 0.00 57.5 60.0 --
09/22/2018 18:00 655.66 0.00 60.9 45.0 --
09/22/2018 17:00 655.67 0.00 61.5 49.0 --
09/22/2018 16:00 655.69 0.00 60.3 52.0 --
09/22/2018 15:00 655.69 0.00 60.3 52.0 --
09/22/2018 14:00 655.68 0.00 60.1 53.0 --
09/22/2018 13:00 655.69 0.00 60.5 57.0 --
09/22/2018 12:00 655.69 0.00 60.9 58.0 --
09/22/2018 11:00 655.68 0.00 61.7 62.0 --
09/22/2018 10:00 655.68 0.00 61.7 62.0 --
09/22/2018 09:00 655.72 0.00 64.3 62.0 --
09/22/2018 08:00 655.69 0.00 68.9 85.0 --
09/22/2018 07:00 655.69 0.00 68.9 90.0 --
09/22/2018 06:00 655.70 0.00 70.0 88.0 --
09/22/2018 05:00 655.72 0.00 69.6 89.0 --
09/22/2018 04:00 655.72 0.00 68.6 92.0 --
09/22/2018 03:00 655.72 0.00 68.6 92.0 --
09/22/2018 02:00 655.70 0.00 67.9 93.0 --
09/22/2018 01:00 655.73 0.02 67.9 90.0 --
09/22/2018 00:00 655.70 0.00 66.3 91.0 --
09/21/2018 23:00 655.71 0.00 64.4 88.0 --
09/21/2018 22:00 655.71 0.00 64.4 88.0 --
09/21/2018 21:00 655.72 0.01 64.3 84.0 --
09/21/2018 20:00 655.71 0.00 64.0 84.0 --
09/21/2018 19:00 655.72 0.00 63.4 83.0 --
09/21/2018 18:00 655.72 0.00 62.4 86.0 --
09/21/2018 17:00 655.73 0.00 62.2 83.0 --
09/21/2018 16:00 655.73 0.00 61.8 81.0 --
09/21/2018 15:00 655.74 0.00 60.4 81.0 --
09/21/2018 14:00 655.73 0.00 59.6 82.0 --
09/21/2018 13:00 655.74 0.00 58.5 88.0 --
09/21/2018 12:00 655.74 0.00 57.8 88.0 --
09/21/2018 11:00 655.75 0.00 57.5 91.0 --
09/21/2018 10:00 655.75 0.00 57.5 91.0 --
09/21/2018 09:00 655.74 0.00 57.1 95.0 --
09/21/2018 08:00 655.75 0.00 56.4 100.0 --
09/21/2018 07:00 655.75 0.00 56.8 100.0 --
09/21/2018 06:00 655.75 0.00 56.4 100.0 --
09/21/2018 05:00 655.75 0.00 56.4 100.0 --
09/21/2018 04:00 655.76 0.00 56.5 100.0 --
09/21/2018 03:00 655.76 0.00 56.6 100.0 --
09/21/2018 02:00 655.76 0.00 56.8 100.0 --
09/21/2018 01:00 655.76 0.00 56.6 100.0 --
09/21/2018 00:00 655.76 0.00 56.6 100.0 --
09/20/2018 23:00 655.77 0.00 57.1 100.0 --
09/20/2018 22:00 655.78 0.00 58.7 96.0 --
09/20/2018 21:00 655.78 0.00 59.6 94.0 --
09/20/2018 20:00 655.79 0.00 60.8 84.0 --
09/20/2018 19:00 655.79 0.00 60.8 84.0 --
09/20/2018 18:00 655.79 0.00 62.1 81.0 --
09/20/2018 17:00 655.80 0.00 62.9 71.0 --
09/20/2018 16:00 655.80 0.00 61.2 75.0 --
09/20/2018 15:00 655.81 0.00 60.8 80.0 --
09/20/2018 14:00 655.81 0.00 60.8 80.0 --
09/20/2018 13:00 655.80 0.00 59.5 92.0 --
09/20/2018 12:00 655.81 0.00 58.0 100.0 --
09/20/2018 11:00 655.81 0.00 57.0 100.0 --
09/20/2018 10:00 655.81 0.00 55.5 100.0 --
09/20/2018 09:00 655.83 0.00 55.3 100.0 --
09/20/2018 08:00 655.82 0.00 55.5 100.0 --
09/20/2018 07:00 655.83 0.00 55.4 100.0 --
09/20/2018 06:00 655.83 0.00 55.5 100.0 --
09/20/2018 05:00 655.83 0.00 55.8 100.0 --
09/20/2018 04:00 655.83 0.00 55.8 100.0 --
09/20/2018 03:00 655.83 0.00 56.8 100.0 --
09/20/2018 02:00 655.85 0.00 57.8 100.0 --
09/20/2018 01:00 655.85 0.00 58.3 100.0 --
09/20/2018 00:00 655.85 0.00 58.6 100.0 --
09/19/2018 23:00 655.85 0.00 58.6 100.0 --
09/19/2018 22:00 655.85 0.00 58.9 100.0 --
09/19/2018 21:00 655.85 0.00 61.7 100.0 --
09/19/2018 20:00 655.86 0.00 63.1 100.0 --
09/19/2018 19:00 655.85 0.00 63.6 94.0 --
09/19/2018 18:00 655.85 0.00 63.6 94.0 --
09/19/2018 17:00 655.85 0.00 63.7 89.0 --
09/19/2018 16:00 655.85 0.00 62.5 92.0 --
09/19/2018 15:00 655.85 0.00 62.2 98.0 --
09/19/2018 14:00 655.85 0.00 59.7 100.0 --
09/19/2018 13:00 655.85 0.00 59.7 100.0 --
09/19/2018 12:00 655.84 0.00 60.4 100.0 --
09/19/2018 11:00 655.85 0.00 61.3 100.0 --
09/19/2018 10:00 655.84 0.00 61.5 100.0 --
09/19/2018 09:00 655.83 0.00 62.2 100.0 --
09/19/2018 08:00 655.82 0.00 62.8 100.0 --
09/19/2018 07:00 655.82 0.00 63.5 100.0 --
09/19/2018 06:00 655.82 0.00 63.5 100.0 --
09/19/2018 05:00 655.81 0.00 63.2 100.0 --
09/19/2018 04:00 655.80 0.00 64.7 100.0 --
09/19/2018 03:00 655.80 0.00 65.6 100.0 --
09/19/2018 02:00 655.80 0.00 66.1 100.0 --
09/19/2018 01:00 655.80 0.00 66.8 100.0 --
09/19/2018 00:00 655.79 0.00 68.8 100.0 --
09/18/2018 23:00 655.79 0.00 68.9 100.0 --
09/18/2018 22:00 655.79 0.00 69.8 100.0 --
09/18/2018 21:00 655.77 0.00 71.4 100.0 --
09/18/2018 20:00 655.77 0.00 71.4 100.0 --
09/18/2018 19:00 655.77 0.00 76.8 82.0 --
09/18/2018 18:00 655.76 0.00 77.4 82.0 --
09/18/2018 17:00 655.75 0.00 73.7 100.0 --
09/18/2018 16:00 655.74 0.00 73.6 100.0 --
09/18/2018 15:00 -- -- -- -- --